Time;durP1;ratioP1;P1;durP2;ratioP2;P2;SDS_P1;SDS_P2;PMS_P1;PMS_P2;Temp;Humidity;BMP_temperature;BMP_pressure;BME280_temperature;BME280_humidity;BME280_pressure;Samples;Min_cycle;Max_cycle;Signal;HPM_P1;HPM_P2
2020/12/12 00:01:35;;;;;;;;;;;;;;;-2.16;82.20;96860.47;1863826;77;27119;-84
2020/12/12 00:04:21;;;;;;;;;;;;;;;-2.12;82.19;96848.34;1853756;77;24659;-84
2020/12/12 00:07:08;;;;;;;;;;;;;;;-2.11;82.20;96850.84;1852659;76;20265;-84
2020/12/12 00:09:54;;;;;;;;;;;;;;;-2.12;82.22;96855.58;1810216;78;24536;-84
2020/12/12 00:12:41;;;;;;;;;;;;;;;-2.14;82.22;96854.01;1832948;77;23111;-85
2020/12/12 00:15:29;;;;;;;;;;;;;;;-2.20;82.22;96846.14;1833323;77;26055;-85
2020/12/12 00:18:16;;;;;;;;;;;;;;;-2.23;82.22;96853.11;1814156;77;25062;-85
2020/12/12 00:21:07;;;;;;;;;;;;;;;-2.27;82.22;96851.59;1817822;77;20542;-85
2020/12/12 00:23:54;;;;;;;;;;;;;;;-2.32;82.21;96849.24;1815413;78;24446;-85
2020/12/12 00:26:40;;;;;;;;;;;;;;;-2.30;82.20;96853.86;1851942;77;22140;-85
2020/12/12 00:29:14;;;;;;;;;;;;;;;-2.28;82.20;96848.64;1840826;77;26086;-86
2020/12/12 00:32:05;;;;;;;;;;;;;;;-2.31;82.18;96850.91;1758423;79;24624;-86
2020/12/12 00:34:51;;;;;;;;;;;;;;;-2.32;82.20;96849.69;1800001;78;20427;-86
2020/12/12 00:37:38;;;;;;;;;;;;;;;-2.34;82.20;96850.20;1826958;78;24434;-86
2020/12/12 00:40:25;;;;;;;;;;;;;;;-2.39;82.18;96849.12;1802706;78;22103;-85
2020/12/12 00:43:11;;;;;;;;;;;;;;;-2.40;82.20;96853.86;1829309;77;26105;-85
2020/12/12 00:45:57;;;;;;;;;;;;;;;-2.38;82.20;96852.52;1829841;78;25535;-86
2020/12/12 00:48:32;;;;;;;;;;;;;;;-2.35;82.20;96860.92;1843860;77;20281;-86
2020/12/12 00:51:06;;;;;;;;;;;;;;;-2.26;82.21;96860.50;1798230;79;24436;-86
2020/12/12 00:53:57;;;;;;;;;;;;;;;-2.15;82.24;96859.58;1825711;76;22089;-86
2020/12/12 00:56:44;;;;;;;;;;;;;;;-2.04;82.26;96858.26;1837306;77;26321;-85
2020/12/12 00:59:31;;;;;;;;;;;;;;;-2.05;82.29;96860.44;1820677;77;24598;-85
2020/12/12 01:02:23;;;;;;;;;;;;;;;-2.03;82.32;96858.20;1751501;80;20322;-85
2020/12/12 01:05:10;;;;;;;;;;;;;;;-2.09;82.34;96855.08;1818423;77;24476;-86
2020/12/12 01:07:57;;;;;;;;;;;;;;;-2.11;82.36;96858.98;1820441;78;22112;-85
2020/12/12 01:10:43;;;;;;;;;;;;;;;-2.12;82.37;96850.45;1821278;78;26122;-85
2020/12/12 01:13:32;;;;;;;;;;;;;;;-2.12;82.38;96850.45;1818099;77;24668;-85
2020/12/12 01:16:18;;;;;;;;;;;;;;;-2.05;82.38;96847.17;1820121;78;20176;-84
2020/12/12 01:19:06;;;;;;;;;;;;;;;-2.04;82.40;96846.28;1820709;78;24797;-84
2020/12/12 01:21:53;;;;;;;;;;;;;;;-2.04;82.42;96852.69;1816509;78;23013;-85
2020/12/12 01:24:40;;;;;;;;;;;;;;;-2.06;82.40;96842.11;1820997;78;26333;-84
2020/12/12 01:27:27;;;;;;;;;;;;;;;-2.10;82.44;96837.59;1819294;77;24841;-85
2020/12/12 01:30:14;;;;;;;;;;;;;;;-2.09;82.42;96834.12;1826302;78;20455;-85
2020/12/12 01:33:00;;;;;;;;;;;;;;;-2.08;82.42;96839.64;1801131;78;24447;-85
2020/12/12 01:35:47;;;;;;;;;;;;;;;-2.01;82.43;96838.88;1825812;78;22298;-85
2020/12/12 01:38:34;;;;;;;;;;;;;;;-1.94;82.40;96832.59;1801820;78;25669;-85
2020/12/12 01:41:22;;;;;;;;;;;;;;;-1.91;82.43;96829.91;1810930;78;25081;-85
2020/12/12 01:43:59;;;;;;;;;;;;;;;-1.85;82.44;96827.03;1824225;78;20172;-84
2020/12/12 01:46:33;;;;;;;;;;;;;;;-1.84;82.48;96825.68;1822920;78;24629;-84
2020/12/12 01:49:07;;;;;;;;;;;;;;;-1.86;82.47;96822.37;1801340;78;21822;-85
2020/12/12 01:52:00;;;;;;;;;;;;;;;-1.84;82.49;96824.40;1827496;78;27210;-85
2020/12/12 01:54:49;;;;;;;;;;;;;;;-1.77;82.50;96817.26;1827113;78;24652;-85
2020/12/12 01:57:36;;;;;;;;;;;;;;;-1.72;82.50;96816.14;1797382;78;20535;-85
2020/12/12 02:00:22;;;;;;;;;;;;;;;-1.71;82.51;96817.81;1825435;78;25384;-84
2020/12/12 02:03:10;;;;;;;;;;;;;;;-1.61;82.53;96818.20;1825956;78;24463;-85
2020/12/12 02:05:56;;;;;;;;;;;;;;;-1.60;82.54;96811.34;1824138;78;26095;-85
2020/12/12 02:08:43;;;;;;;;;;;;;;;-1.59;82.56;96804.03;1823721;78;24650;-84
2020/12/12 02:11:30;;;;;;;;;;;;;;;-1.39;82.54;96795.75;1826454;78;20570;-84
2020/12/12 02:14:22;;;;;;;;;;;;;;;-1.44;82.55;96788.73;1799182;78;23718;-84
2020/12/12 02:17:08;;;;;;;;;;;;;;;-1.44;82.58;96795.59;1825178;77;22096;-84
2020/12/12 02:19:55;;;;;;;;;;;;;;;-1.51;82.60;96774.98;1800220;78;26265;-84
2020/12/12 02:22:42;;;;;;;;;;;;;;;-1.61;82.59;96792.55;1825048;78;24568;-84
2020/12/12 02:25:28;;;;;;;;;;;;;;;-1.61;82.58;96779.73;1825302;78;20526;-84
2020/12/12 02:28:17;;;;;;;;;;;;;;;-1.61;82.57;96789.98;1825386;77;24380;-84
2020/12/12 02:31:03;;;;;;;;;;;;;;;-1.62;82.57;96781.91;1823420;78;21342;-84
2020/12/12 02:33:50;;;;;;;;;;;;;;;-1.62;82.58;96781.91;1824187;78;26322;-84
2020/12/12 02:36:37;;;;;;;;;;;;;;;-1.50;82.57;96805.69;1822823;78;24595;-84
2020/12/12 02:39:24;;;;;;;;;;;;;;;-1.51;82.58;96755.74;1799993;78;20321;-84
2020/12/12 02:42:10;;;;;;;;;;;;;;;-1.62;82.61;96771.66;1824833;77;25450;-85
2020/12/12 02:44:44;;;;;;;;;;;;;;;-1.55;82.62;96792.27;1823642;78;22309;-85
2020/12/12 02:47:34;;;;;;;;;;;;;;;-1.44;82.58;96773.34;1823872;78;26115;-85
2020/12/12 02:50:26;;;;;;;;;;;;;;;-1.51;82.60;96772.41;1824059;78;24570;-85
2020/12/12 02:53:15;;;;;;;;;;;;;;;-1.56;82.62;96772.64;1802262;78;20384;-84
2020/12/12 02:56:01;;;;;;;;;;;;;;;-1.49;82.60;96759.08;1823601;77;24596;-84
2020/12/12 02:58:48;;;;;;;;;;;;;;;-1.56;82.62;96739.30;1824263;78;22362;-84
2020/12/12 03:01:38;;;;;;;;;;;;;;;-1.61;82.64;96754.53;1823129;78;26978;-84
2020/12/12 03:04:12;;;;;;;;;;;;;;;-1.57;82.62;96762.45;1823917;78;25517;-84
2020/12/12 03:07:00;;;;;;;;;;;;;;;-1.47;82.62;96759.36;1784681;78;20467;-84
2020/12/12 03:09:46;;;;;;;;;;;;;;;-1.29;82.63;96765.33;1808021;78;24538;-84
2020/12/12 03:12:33;;;;;;;;;;;;;;;-1.21;82.65;96761.11;1810666;78;22103;-83
2020/12/12 03:15:21;;;;;;;;;;;;;;;-1.30;82.69;96761.92;1791237;78;26946;-84
2020/12/12 03:18:08;;;;;;;;;;;;;;;-1.38;82.74;96765.34;1805930;78;24553;-84
2020/12/12 03:21:00;;;;;;;;;;;;;;;-1.47;82.73;96763.66;1816120;78;20196;-84
2020/12/12 03:23:47;;;;;;;;;;;;;;;-1.56;82.73;96759.82;1813497;78;24529;-84
2020/12/12 03:26:34;;;;;;;;;;;;;;;-1.63;82.71;96758.89;1809737;78;22160;-84
2020/12/12 03:29:21;;;;;;;;;;;;;;;-1.66;82.70;96761.17;1810621;77;26060;-84
2020/12/12 03:32:08;;;;;;;;;;;;;;;-1.67;82.68;96758.67;1806019;78;24611;-84
2020/12/12 03:34:54;;;;;;;;;;;;;;;-1.70;82.67;96764.34;1807402;78;20563;-85
2020/12/12 03:37:40;;;;;;;;;;;;;;;-1.73;82.66;96758.06;1812201;78;24603;-85
2020/12/12 03:40:27;;;;;;;;;;;;;;;-1.73;82.66;96762.36;1814829;78;22110;-85
2020/12/12 03:43:13;;;;;;;;;;;;;;;-1.76;82.64;96755.66;1805805;78;26123;-85
2020/12/12 03:46:01;;;;;;;;;;;;;;;-1.78;82.67;96757.91;1805361;78;24602;-85
2020/12/12 03:48:47;;;;;;;;;;;;;;;-1.78;82.66;96758.73;1806725;78;20182;-85
2020/12/12 03:51:34;;;;;;;;;;;;;;;-1.72;82.66;96754.60;1808705;78;24487;-85
2020/12/12 03:54:21;;;;;;;;;;;;;;;-1.68;82.68;96743.73;1812079;78;22270;-85
2020/12/12 03:57:08;;;;;;;;;;;;;;;-1.64;82.70;96738.86;1804341;78;26332;-84
2020/12/12 03:59:56;;;;;;;;;;;;;;;-1.61;82.71;96738.70;1809748;78;25485;-84
2020/12/12 04:02:43;;;;;;;;;;;;;;;-1.57;82.73;96742.77;1808810;78;20541;-84
2020/12/12 04:05:29;;;;;;;;;;;;;;;-1.56;82.75;96738.02;1803412;78;24883;-84
2020/12/12 04:08:15;;;;;;;;;;;;;;;-1.55;82.78;96743.53;1806707;78;22357;-84
2020/12/12 04:11:04;;;;;;;;;;;;;;;-1.56;82.82;96734.62;1790257;78;26437;-84
2020/12/12 04:13:52;;;;;;;;;;;;;;;-1.60;82.83;96736.52;1809580;78;24839;-84
2020/12/12 04:16:39;;;;;;;;;;;;;;;-1.57;82.85;96741.48;1817331;78;20261;-84
2020/12/12 04:19:27;;;;;;;;;;;;;;;-1.44;82.83;96746.40;1801584;78;24864;-84
2020/12/12 04:22:13;;;;;;;;;;;;;;;-1.38;82.84;96747.83;1811209;78;22222;-84
2020/12/12 04:25:01;;;;;;;;;;;;;;;-1.38;82.88;96749.11;1778380;78;26109;-83
2020/12/12 04:27:48;;;;;;;;;;;;;;;-1.35;82.91;96747.22;1809284;78;24830;-84
2020/12/12 04:30:36;;;;;;;;;;;;;;;-1.28;82.94;96747.30;1837929;77;20191;-84
2020/12/12 04:33:23;;;;;;;;;;;;;;;-1.07;82.93;96750.97;1793139;77;25136;-84
2020/12/12 04:36:09;;;;;;;;;;;;;;;-0.93;82.96;96748.06;1835489;77;23242;-84
2020/12/12 04:38:58;;;;;;;;;;;;;;;-0.75;82.97;96749.31;1829843;77;27946;-84
2020/12/12 04:41:45;;;;;;;;;;;;;;;-0.63;83.01;96746.11;1827476;77;24565;-84
2020/12/12 04:44:32;;;;;;;;;;;;;;;-0.55;83.05;96743.53;1826282;77;20274;-84
2020/12/12 04:47:19;;;;;;;;;;;;;;;-0.50;83.10;96751.83;1834546;77;24691;-84
2020/12/12 04:50:05;;;;;;;;;;;;;;;-0.58;83.13;96754.41;1830451;77;22131;-84
2020/12/12 04:52:54;;;;;;;;;;;;;;;-0.60;83.16;96744.69;1832610;77;26098;-84
2020/12/12 04:55:44;;;;;;;;;;;;;;;-0.62;83.19;96751.18;1832972;77;24839;-85
2020/12/12 04:58:33;;;;;;;;;;;;;;;-0.57;83.18;96751.77;1834417;77;20288;-84
2020/12/12 05:01:21;;;;;;;;;;;;;;;-0.35;83.15;96756.59;1798940;77;24713;-85
2020/12/12 05:04:10;;;;;;;;;;;;;;;-0.17;83.15;96763.33;1827513;77;22918;-84
2020/12/12 05:06:57;;;;;;;;;;;;;;;-0.09;83.17;96762.90;1828687;77;26123;-85
2020/12/12 05:09:43;;;;;;;;;;;;;;;-0.11;83.20;96756.55;1826025;77;24692;-84
2020/12/12 05:12:35;;;;;;;;;;;;;;;-0.10;83.22;96758.66;1830964;77;20316;-84
2020/12/12 05:15:24;;;;;;;;;;;;;;;-0.22;83.21;96752.92;1800436;77;24852;-85
2020/12/12 05:18:11;;;;;;;;;;;;;;;-0.44;83.25;96745.05;1834304;77;22145;-84
2020/12/12 05:21:04;;;;;;;;;;;;;;;-0.54;83.21;96751.59;1835098;77;26407;-85
2020/12/12 05:23:57;;;;;;;;;;;;;;;-0.43;83.16;96756.99;1838328;77;24366;-85
2020/12/12 05:26:45;;;;;;;;;;;;;;;-0.34;83.10;96763.41;1833342;77;20498;-84
2020/12/12 05:29:32;;;;;;;;;;;;;;;-0.30;83.08;96762.77;1803980;77;24866;-85
2020/12/12 05:32:23;;;;;;;;;;;;;;;-0.16;83.05;96764.13;1832921;77;22092;-85
2020/12/12 05:35:12;;;;;;;;;;;;;;;-0.01;83.02;96773.61;1798389;78;26136;-84
2020/12/12 05:37:59;;;;;;;;;;;;;;;0.05;83.03;96769.42;1834582;77;24519;-85
2020/12/12 05:40:46;;;;;;;;;;;;;;;0.15;83.02;96772.31;1804825;78;20264;-85
2020/12/12 05:43:35;;;;;;;;;;;;;;;0.23;83.02;96767.11;1835927;78;24697;-85
2020/12/12 05:46:26;;;;;;;;;;;;;;;0.09;83.02;96767.05;1835033;78;22366;-86
2020/12/12 05:49:13;;;;;;;;;;;;;;;0.05;83.04;96763.45;1833585;78;26117;-85
2020/12/12 05:52:03;;;;;;;;;;;;;;;-0.09;83.02;96761.61;1831041;78;23854;-85
2020/12/12 05:54:50;;;;;;;;;;;;;;;-0.17;83.00;96764.62;1833775;78;20279;-85
2020/12/12 05:57:37;;;;;;;;;;;;;;;-0.14;82.97;96761.87;1828642;78;24740;-85
2020/12/12 06:00:25;;;;;;;;;;;;;;;0.02;82.91;96768.74;1835230;76;22356;-84
2020/12/12 06:03:12;;;;;;;;;;;;;;;0.12;82.87;96767.31;1835179;78;27042;-86
2020/12/12 06:05:59;;;;;;;;;;;;;;;0.04;82.88;96763.91;1811611;78;24455;-86
2020/12/12 06:08:46;;;;;;;;;;;;;;;-0.09;82.88;96770.61;1835293;78;20362;-85
2020/12/12 06:11:33;;;;;;;;;;;;;;;-0.19;82.87;96761.74;1836357;77;24868;-85
2020/12/12 06:14:07;;;;;;;;;;;;;;;-0.18;82.83;96761.67;1838331;78;23228;-84
2020/12/12 06:16:54;;;;;;;;;;;;;;;-0.24;82.80;96765.02;1834876;78;26106;-85
2020/12/12 06:19:40;;;;;;;;;;;;;;;-0.27;82.77;96763.42;1834688;78;24703;-84
2020/12/12 06:22:28;;;;;;;;;;;;;;;-0.20;82.74;96769.91;1833904;77;20517;-84
2020/12/12 06:25:15;;;;;;;;;;;;;;;-0.07;82.72;96762.37;1802777;78;25634;-84
2020/12/12 06:28:01;;;;;;;;;;;;;;;-0.11;82.71;96773.73;1835007;78;22165;-84
2020/12/12 06:30:48;;;;;;;;;;;;;;;-0.19;82.71;96765.14;1835514;77;26767;-84
2020/12/12 06:33:34;;;;;;;;;;;;;;;-0.16;82.70;96766.25;1835676;77;25610;-84
2020/12/12 06:36:20;;;;;;;;;;;;;;;-0.08;82.68;96770.53;1832361;78;20206;-84
2020/12/12 06:39:07;;;;;;;;;;;;;;;0.03;82.67;96778.12;1836751;78;25416;-84
2020/12/12 06:41:54;;;;;;;;;;;;;;;0.18;82.62;96770.39;1801802;78;21826;-84
2020/12/12 06:44:41;;;;;;;;;;;;;;;0.28;82.64;96773.27;1835515;78;26109;-84
2020/12/12 06:47:28;;;;;;;;;;;;;;;0.36;82.64;96774.52;1836517;78;24676;-84
2020/12/12 06:50:15;;;;;;;;;;;;;;;0.34;82.65;96781.94;1836890;77;20493;-84
2020/12/12 06:53:01;;;;;;;;;;;;;;;0.43;82.66;96784.02;1834707;77;24743;-85
2020/12/12 06:55:48;;;;;;;;;;;;;;;0.34;82.66;96778.91;1834443;78;23027;-84
2020/12/12 06:58:39;;;;;;;;;;;;;;;0.40;82.67;96782.89;1834543;78;26963;-84
2020/12/12 07:01:25;;;;;;;;;;;;;;;0.49;82.64;96786.71;1802119;78;25178;-84
2020/12/12 07:04:12;;;;;;;;;;;;;;;0.45;82.61;96789.89;1835145;78;20374;-84
2020/12/12 07:06:58;;;;;;;;;;;;;;;0.56;82.61;96797.02;1834228;77;24695;-84
2020/12/12 07:09:45;;;;;;;;;;;;;;;0.67;82.58;96790.80;1803403;78;21902;-84
2020/12/12 07:12:31;;;;;;;;;;;;;;;0.55;82.57;96802.61;1835813;78;26075;-83
2020/12/12 07:15:22;;;;;;;;;;;;;;;0.56;82.56;96799.13;1837323;78;24620;-83
2020/12/12 07:18:09;;;;;;;;;;;;;;;0.42;82.55;96799.08;1796060;78;20458;-83
2020/12/12 07:20:57;;;;;;;;;;;;;;;0.43;82.52;96800.75;1835581;78;25510;-83
2020/12/12 07:23:43;;;;;;;;;;;;;;;0.35;82.49;96805.02;1835235;78;22802;-83
2020/12/12 07:26:30;;;;;;;;;;;;;;;0.43;82.45;96807.19;1833802;78;25985;-83
2020/12/12 07:29:17;;;;;;;;;;;;;;;0.52;82.41;96812.26;1834723;78;24627;-83
2020/12/12 07:32:04;;;;;;;;;;;;;;;0.57;82.39;96817.98;1833258;78;20586;-83
2020/12/12 07:34:50;;;;;;;;;;;;;;;0.44;82.41;96818.30;1812291;78;24632;-83
2020/12/12 07:37:37;;;;;;;;;;;;;;;0.44;82.40;96810.59;1800964;79;21431;-83
2020/12/12 07:40:24;;;;;;;;;;;;;;;0.48;82.37;96815.92;1837098;77;26059;-83
2020/12/12 07:43:11;;;;;;;;;;;;;;;0.53;82.37;96822.48;1833123;78;24581;-83
2020/12/12 07:46:02;;;;;;;;;;;;;;;0.51;82.36;96816.58;1805414;77;20419;-83
2020/12/12 07:48:45;;;;;;;;;;;;;;;0.55;82.35;96818.05;1837669;77;24993;-83
2020/12/12 07:51:32;;;;;;;;;;;;;;;0.52;82.36;96814.83;1840179;77;22225;-84
2020/12/12 07:54:23;;;;;;;;;;;;;;;0.48;82.34;96822.36;1793959;78;26118;-84
2020/12/12 07:57:08;;;;;;;;;;;;;;;0.41;82.34;96821.86;1801952;79;24704;-83
2020/12/12 07:59:55;;;;;;;;;;;;;;;0.32;82.33;96828.81;1837500;77;20255;-83
2020/12/12 08:02:44;;;;;;;;;;;;;;;0.27;82.30;96826.95;1795272;79;24797;-84
2020/12/12 08:05:31;;;;;;;;;;;;;;;0.23;82.28;96832.70;1819498;78;22387;-83
2020/12/12 08:08:17;;;;;;;;;;;;;;;0.20;82.27;96827.73;1806071;78;25645;-83
2020/12/12 08:11:10;;;;;;;;;;;;;;;0.20;82.23;96839.77;1814247;78;24585;-84
2020/12/12 08:13:57;;;;;;;;;;;;;;;0.31;82.19;96831.84;1821550;77;20338;-83
2020/12/12 08:16:47;;;;;;;;;;;;;;;0.29;82.21;96832.82;1826023;78;24682;-83
2020/12/12 08:19:34;;;;;;;;;;;;;;;0.39;82.18;96839.12;1820663;78;22130;-83
2020/12/12 08:22:09;;;;;;;;;;;;;;;0.45;82.20;96840.52;1825678;77;26291;-83
2020/12/12 08:25:03;;;;;;;;;;;;;;;0.38;82.21;96845.20;1802497;78;25644;-83
2020/12/12 08:27:49;;;;;;;;;;;;;;;0.46;82.21;96851.20;1823394;78;20349;-83
2020/12/12 08:30:35;;;;;;;;;;;;;;;0.50;82.21;96850.10;1824714;77;24923;-83
2020/12/12 08:33:24;;;;;;;;;;;;;;;0.51;82.23;96846.63;1825454;78;22341;-84
2020/12/12 08:36:17;;;;;;;;;;;;;;;0.50;82.24;96850.94;1824573;78;26140;-85
2020/12/12 08:39:06;;;;;;;;;;;;;;;0.45;82.24;96855.52;1819951;78;24627;-84
2020/12/12 08:41:54;;;;;;;;;;;;;;;0.45;82.23;96851.65;1818220;77;20275;-83
2020/12/12 08:44:41;;;;;;;;;;;;;;;0.42;82.21;96856.98;1823795;78;24943;-83
2020/12/12 08:47:29;;;;;;;;;;;;;;;0.38;82.20;96849.86;1821727;77;22140;-83
2020/12/12 08:50:15;;;;;;;;;;;;;;;0.42;82.20;96854.41;1826627;78;25323;-83
2020/12/12 08:53:01;;;;;;;;;;;;;;;0.56;82.18;96859.61;1826919;78;24618;-83
2020/12/12 08:55:48;;;;;;;;;;;;;;;0.53;82.18;96864.94;1811510;78;20388;-83
2020/12/12 08:58:35;;;;;;;;;;;;;;;0.51;82.19;96866.76;1823908;78;24699;-83
2020/12/12 09:01:21;;;;;;;;;;;;;;;0.50;82.21;96866.83;1821277;78;22207;-83
2020/12/12 09:04:08;;;;;;;;;;;;;;;0.53;82.21;96860.25;1822589;77;26281;-83
2020/12/12 09:06:59;;;;;;;;;;;;;;;0.47;82.21;96861.87;1827759;77;24855;-83
2020/12/12 09:09:47;;;;;;;;;;;;;;;0.48;82.20;96864.82;1828876;78;20311;-83
2020/12/12 09:12:36;;;;;;;;;;;;;;;0.51;82.20;96871.91;1824848;78;24845;-83
2020/12/12 09:15:23;;;;;;;;;;;;;;;0.56;82.20;96863.47;1817073;78;22252;-83
2020/12/12 09:18:09;;;;;;;;;;;;;;;0.54;82.20;96867.06;1824220;78;27124;-84
2020/12/12 09:20:56;;;;;;;;;;;;;;;0.56;82.21;96866.05;1818294;78;24655;-84
2020/12/12 09:23:46;;;;;;;;;;;;;;;0.74;82.20;96874.50;1825546;78;20267;-84
2020/12/12 09:26:32;;;;;;;;;;;;;;;0.92;82.19;96866.21;1799353;79;25120;-84
2020/12/12 09:29:18;;;;;;;;;;;;;;;0.92;82.21;96859.31;1806722;78;22247;-83
2020/12/12 09:32:05;;;;;;;;;;;;;;;0.92;82.26;96854.63;1792563;78;27129;-83
2020/12/12 09:34:52;;;;;;;;;;;;;;;0.93;82.27;96855.80;1832337;76;25558;-84
2020/12/12 09:37:39;;;;;;;;;;;;;;;0.95;82.30;96859.59;1807299;78;20199;-84
2020/12/12 09:40:16;;;;;;;;;;;;;;;1.05;82.29;96856.40;1829185;78;24661;-84
2020/12/12 09:43:04;;;;;;;;;;;;;;;1.17;82.30;96856.98;1813917;78;23156;-84
2020/12/12 09:45:50;;;;;;;;;;;;;;;1.10;82.33;96853.55;1850832;77;26623;-84
2020/12/12 09:48:39;;;;;;;;;;;;;;;1.07;82.35;96846.84;1852572;77;24688;-84
2020/12/12 09:51:25;;;;;;;;;;;;;;;0.99;82.33;96849.02;1846474;77;20179;-84
2020/12/12 09:54:15;;;;;;;;;;;;;;;0.93;82.35;96843.41;1816496;77;24443;-84
2020/12/12 09:57:01;;;;;;;;;;;;;;;0.89;82.31;96847.05;1823182;78;22148;-84
2020/12/12 09:59:50;;;;;;;;;;;;;;;0.90;82.30;96848.72;1821781;78;27032;-85
2020/12/12 10:02:37;;;;;;;;;;;;;;;0.83;82.29;96842.62;1794657;78;24405;-84
2020/12/12 10:05:24;;;;;;;;;;;;;;;0.79;82.27;96845.47;1813834;78;20264;-84
2020/12/12 10:08:10;;;;;;;;;;;;;;;0.80;82.24;96848.41;1810094;78;24750;-84
2020/12/12 10:10:44;;;;;;;;;;;;;;;0.82;82.23;96843.53;1822629;78;22169;-85
2020/12/12 10:13:30;;;;;;;;;;;;;;;0.80;82.21;96839.41;1814245;78;26930;-85
2020/12/12 10:16:18;;;;;;;;;;;;;;;0.83;82.22;96844.37;1806554;78;24405;-84
2020/12/12 10:19:08;;;;;;;;;;;;;;;0.84;82.22;96845.58;1811344;78;20431;-84
2020/12/12 10:21:54;;;;;;;;;;;;;;;0.84;82.23;96846.03;1813939;78;24935;-85
2020/12/12 10:24:37;;;;;;;;;;;;;;;0.83;82.23;96845.20;1818525;78;22150;-84
2020/12/12 10:27:24;;;;;;;;;;;;;;;0.88;82.21;96844.10;1819640;78;26092;-85
2020/12/12 10:30:11;;;;;;;;;;;;;;;0.89;82.23;96849.62;1816699;78;24649;-85
2020/12/12 10:33:01;;;;;;;;;;;;;;;0.98;82.22;96849.12;1766260;79;20354;-85
2020/12/12 10:35:51;;;;;;;;;;;;;;;0.92;82.25;96840.46;1771820;80;24691;-85
2020/12/12 10:38:43;;;;;;;;;;;;;;;0.87;82.25;96838.61;1766488;80;22050;-86
2020/12/12 10:41:31;;;;;;;;;;;;;;;0.91;82.27;96833.64;1761998;79;26122;-84
2020/12/12 10:44:18;;;;;;;;;;;;;;;0.94;82.26;96829.59;1764898;79;24595;-84
2020/12/12 10:47:05;;;;;;;;;;;;;;;0.99;82.28;96837.42;1765732;80;20571;-84
2020/12/12 10:49:52;;;;;;;;;;;;;;;1.01;82.28;96836.89;1769066;80;24699;-84
2020/12/12 10:52:47;;;;;;;;;;;;;;;0.97;82.32;96837.16;1765698;80;22427;-85
2020/12/12 10:55:36;;;;;;;;;;;;;;;1.01;82.31;96842.05;1770491;79;26512;-85
2020/12/12 10:58:25;;;;;;;;;;;;;;;1.20;82.32;96848.27;1744383;80;24587;-85
2020/12/12 11:01:12;;;;;;;;;;;;;;;1.22;82.34;96853.69;1765241;79;20542;-85
2020/12/12 11:04:00;;;;;;;;;;;;;;;1.24;82.39;96846.70;1739288;80;24495;-85
2020/12/12 11:06:47;;;;;;;;;;;;;;;1.28;82.42;96842.19;1774372;80;22106;-85
2020/12/12 11:09:34;;;;;;;;;;;;;;;1.24;82.44;96845.42;1771633;80;25872;-86
2020/12/12 11:12:22;;;;;;;;;;;;;;;1.22;82.45;96846.41;1782091;79;24475;-86
2020/12/12 11:15:10;;;;;;;;;;;;;;;1.19;82.46;96844.86;1770845;80;20276;-86
2020/12/12 11:17:57;;;;;;;;;;;;;;;1.19;82.46;96850.02;1767597;80;24650;-86
2020/12/12 11:20:43;;;;;;;;;;;;;;;1.17;82.45;96848.42;1769845;80;22071;-86
2020/12/12 11:23:30;;;;;;;;;;;;;;;1.15;82.47;96839.48;1776716;80;26392;-86
2020/12/12 11:26:20;;;;;;;;;;;;;;;1.24;82.42;96852.31;1769465;80;24639;-86
2020/12/12 11:29:06;;;;;;;;;;;;;;;1.26;82.45;96857.73;1774259;80;20264;-86
2020/12/12 11:31:54;;;;;;;;;;;;;;;1.30;82.45;96855.00;1788731;78;24843;-86
2020/12/12 11:34:43;;;;;;;;;;;;;;;1.31;82.48;96856.17;1807101;78;23890;-86
2020/12/12 11:40:43;;;;;;;;;;;;;;;1.42;82.50;96847.84;1786850;78;24840;-86
2020/12/12 11:46:37;;;;;;;;;;;;;;;1.51;82.51;96857.60;1792103;78;24896;-86
2020/12/12 11:49:27;;;;;;;;;;;;;;;1.49;82.53;96852.98;1805064;78;22053;-86
2020/12/12 11:52:13;;;;;;;;;;;;;;;1.41;82.57;96858.61;1795445;78;26118;-86
2020/12/12 11:55:04;;;;;;;;;;;;;;;1.47;82.52;96852.27;1809516;78;25660;-85
2020/12/12 11:57:51;;;;;;;;;;;;;;;1.63;82.54;96864.16;1780612;78;20318;-85
2020/12/12 12:00:43;;;;;;;;;;;;;;;1.58;82.57;96863.58;1801129;78;24699;-85
2020/12/12 12:03:28;;;;;;;;;;;;;;;1.54;82.59;96867.72;1820573;78;22314;-85
2020/12/12 12:06:02;;;;;;;;;;;;;;;1.47;82.59;96865.98;1812942;78;26257;-86
2020/12/12 12:09:10;;;;;;;;;;;;;;;1.44;82.59;96867.89;1811218;78;24787;-86
2020/12/12 12:11:46;;;;;;;;;;;;;;;1.41;82.56;96874.08;1821793;78;20346;-85
2020/12/12 12:14:38;;;;;;;;;;;;;;;1.38;82.54;96877.27;1821913;78;24246;-85
2020/12/12 12:17:25;;;;;;;;;;;;;;;1.40;82.52;96880.59;1808203;78;22160;-86
2020/12/12 12:20:16;;;;;;;;;;;;;;;1.44;82.50;96885.94;1817280;78;27144;-86
2020/12/12 12:23:03;;;;;;;;;;;;;;;1.53;82.49;96879.78;1812523;78;24614;-86
2020/12/12 12:25:49;;;;;;;;;;;;;;;1.57;82.51;96889.02;1816425;77;20275;-86
2020/12/12 12:28:36;;;;;;;;;;;;;;;1.71;82.50;96886.06;1807128;78;24701;-86
2020/12/12 12:31:27;;;;;;;;;;;;;;;1.89;82.48;96898.70;1814540;78;22073;-85
2020/12/12 12:34:15;;;;;;;;;;;;;;;1.93;82.52;96897.59;1815284;78;26085;-86
2020/12/12 12:37:03;;;;;;;;;;;;;;;1.90;82.57;96896.95;1806282;78;24563;-86
2020/12/12 12:39:49;;;;;;;;;;;;;;;1.94;82.57;96901.84;1816902;78;20307;-86
2020/12/12 12:42:36;;;;;;;;;;;;;;;1.94;82.60;96901.00;1806906;77;24694;-86
2020/12/12 12:45:24;;;;;;;;;;;;;;;1.82;82.60;96901.27;1809080;77;22133;-86
2020/12/12 12:48:11;;;;;;;;;;;;;;;1.76;82.59;96899.05;1812969;77;26131;-86
2020/12/12 12:50:57;;;;;;;;;;;;;;;1.71;82.55;96896.38;1808374;78;24800;-86
2020/12/12 12:53:45;;;;;;;;;;;;;;;1.72;82.53;96897.59;1779104;78;20408;-86
2020/12/12 12:56:31;;;;;;;;;;;;;;;1.73;82.52;96896.67;1827728;78;24909;-86
2020/12/12 12:59:17;;;;;;;;;;;;;;;1.66;82.50;96891.50;1817290;78;22078;-86
2020/12/12 13:02:07;;;;;;;;;;;;;;;1.59;82.50;96898.75;1813760;78;26130;-86
2020/12/12 13:04:55;;;;;;;;;;;;;;;1.57;82.46;96897.20;1818573;78;24624;-87
2020/12/12 13:07:42;;;;;;;;;;;;;;;1.51;82.45;96899.67;1801462;78;20390;-86
2020/12/12 13:10:30;;;;;;;;;;;;;;;1.53;82.44;96908.59;1790561;78;24907;-86
2020/12/12 13:13:20;;;;;;;;;;;;;;;1.49;82.42;96908.41;1797348;78;22132;-86
2020/12/12 13:16:09;;;;;;;;;;;;;;;1.42;82.40;96902.77;1811591;77;26239;-86
2020/12/12 13:19:01;;;;;;;;;;;;;;;1.39;82.40;96907.28;1776632;79;24377;-86
2020/12/12 13:21:50;;;;;;;;;;;;;;;1.33;82.35;96908.92;1836938;77;20450;-86
2020/12/12 13:24:29;;;;;;;;;;;;;;;1.33;82.34;96916.65;1828928;78;24909;-86
2020/12/12 13:27:16;;;;;;;;;;;;;;;1.35;82.34;96918.23;1838318;77;22221;-86
2020/12/12 13:30:16;;;;;;;;;;;;;;;1.34;82.35;96913.16;1836418;77;25381;-86
2020/12/12 13:33:03;;;;;;;;;;;;;;;1.33;82.33;96917.94;1809282;78;24574;-86
2020/12/12 13:35:49;;;;;;;;;;;;;;;1.29;82.33;96929.34;1784849;79;20543;-86
2020/12/12 13:38:36;;;;;;;;;;;;;;;1.22;82.33;96927.12;1823147;78;22996;-85
2020/12/12 13:41:25;;;;;;;;;;;;;;;1.19;82.34;96925.18;1820659;77;22032;-86
2020/12/12 13:44:12;;;;;;;;;;;;;;;1.17;82.31;96934.28;1792001;77;26367;-85
2020/12/12 13:46:58;;;;;;;;;;;;;;;1.20;82.30;96939.73;1819306;77;24848;-86
2020/12/12 13:49:44;;;;;;;;;;;;;;;1.27;82.30;96934.58;1822591;77;20576;-86
2020/12/12 13:52:31;;;;;;;;;;;;;;;1.32;82.31;96932.56;1812737;77;24703;-86
2020/12/12 13:55:17;;;;;;;;;;;;;;;1.36;82.34;96934.53;1816417;77;22107;-86
2020/12/12 13:58:03;;;;;;;;;;;;;;;1.34;82.35;96936.36;1816671;77;26413;-87
2020/12/12 14:00:49;;;;;;;;;;;;;;;1.31;82.38;96932.68;1813063;77;24756;-86
2020/12/12 14:03:36;;;;;;;;;;;;;;;1.29;82.40;96940.94;1813730;77;20279;-86
2020/12/12 14:06:24;;;;;;;;;;;;;;;1.19;82.39;96941.47;1832844;77;24652;-86
2020/12/12 14:24:57;;;;;;;;;;;;;;;0.87;82.32;96953.19;1757221;78;22162;-85
2020/12/12 14:30:51;;;;;;;;;;;;;;;0.73;82.30;96952.64;1801653;78;25199;-86
2020/12/12 14:33:38;;;;;;;;;;;;;;;0.68;82.28;96954.19;1774576;78;20204;-86
2020/12/12 14:36:25;;;;;;;;;;;;;;;0.67;82.26;96954.26;1777631;78;24668;-85
2020/12/12 14:39:11;;;;;;;;;;;;;;;0.66;82.26;96962.44;1771988;78;22209;-84
2020/12/12 14:41:58;;;;;;;;;;;;;;;0.65;82.25;96969.81;1757311;78;26207;-85
2020/12/12 14:44:45;;;;;;;;;;;;;;;0.63;82.27;96965.64;1777948;78;24793;-84
2020/12/12 14:47:32;;;;;;;;;;;;;;;0.59;82.27;96974.45;1775955;78;20180;-84
2020/12/12 14:50:19;;;;;;;;;;;;;;;0.58;82.26;96980.05;1781058;78;24726;-84
2020/12/12 14:53:06;;;;;;;;;;;;;;;0.55;82.26;96984.05;1782360;78;22139;-84
2020/12/12 14:55:54;;;;;;;;;;;;;;;0.52;82.26;96986.81;1795588;78;25767;-84
2020/12/12 14:58:43;;;;;;;;;;;;;;;0.54;82.25;96995.74;1783343;78;24629;-84
2020/12/12 15:01:29;;;;;;;;;;;;;;;0.56;82.26;96991.33;1776839;78;20641;-83